Time;durP1;ratioP1;P1;durP2;ratioP2;P2;SDS_P1;SDS_P2;PMS_P1;PMS_P2;Temp;Humidity;BMP_temperature;BMP_pressure;BME280_temperature;BME280_humidity;BME280_pressure;Samples;Min_cycle;Max_cycle;Signal;HPM_P1;HPM_P2
2020/12/11 00:00:19;;;;;;;16.57;7.37;;;;;;;-2.55;74.41;101667.86;1775901;80;20912;-35
2020/12/11 00:02:47;;;;;;;16.90;8.78;;;;;;;-2.62;74.62;101671.33;1775843;80;20912;-34
2020/12/11 00:05:15;;;;;;;18.57;7.97;;;;;;;-2.69;74.75;101666.69;1782825;80;21025;-33
2020/12/11 00:07:44;;;;;;;26.12;9.08;;;;;;;-2.74;74.88;101669.37;1792975;80;21155;-35
2020/12/11 00:10:14;;;;;;;18.00;8.65;;;;;;;-2.73;75.01;101674.92;1793132;80;21100;-35
2020/12/11 00:12:41;;;;;;;14.90;7.42;;;;;;;-2.73;75.00;101675.33;1793007;80;21021;-34
2020/12/11 00:15:10;;;;;;;16.50;8.33;;;;;;;-2.76;75.06;101676.02;1764103;80;21030;-34
2020/12/11 00:17:38;;;;;;;18.67;8.50;;;;;;;-2.75;75.05;101670.16;1793074;80;20979;-33
2020/12/11 00:20:06;;;;;;;25.43;7.97;;;;;;;-2.77;75.08;101673.00;1793117;80;21331;-33
2020/12/11 00:22:34;;;;;;;18.10;8.18;;;;;;;-2.81;75.10;101662.22;1793024;80;21002;-34
2020/12/11 00:25:02;;;;;;;17.25;8.28;;;;;;;-2.83;75.20;101665.92;1793033;80;20982;-36
2020/12/11 00:27:31;;;;;;;16.48;8.33;;;;;;;-2.83;75.14;101654.93;1793108;80;20982;-33
2020/12/11 00:29:59;;;;;;;17.45;7.92;;;;;;;-2.81;75.09;101641.94;1793073;80;20983;-35
2020/12/11 00:32:27;;;;;;;21.30;7.60;;;;;;;-2.87;75.17;101649.21;1793079;80;21146;-35
2020/12/11 00:34:55;;;;;;;16.70;7.67;;;;;;;-2.93;75.26;101651.86;1793009;80;20939;-33
2020/12/11 00:37:24;;;;;;;19.90;8.23;;;;;;;-2.92;75.26;101654.02;1793087;80;20979;-34
2020/12/11 00:39:51;;;;;;;13.40;7.37;;;;;;;-2.96;75.35;101654.23;1793040;80;21005;-34
2020/12/11 00:42:20;;;;;;;20.43;7.40;;;;;;;-3.01;75.47;101645.50;1793065;80;20983;-32
2020/12/11 00:44:48;;;;;;;12.30;8.05;;;;;;;-3.02;75.57;101639.09;1793039;80;21265;-34
2020/12/11 00:47:16;;;;;;;23.73;6.87;;;;;;;-3.05;75.61;101635.58;1792969;80;20927;-34
2020/12/11 00:49:44;;;;;;;18.85;7.87;;;;;;;-3.06;75.66;101640.16;1792994;80;20923;-33
2020/12/11 00:52:12;;;;;;;15.53;7.08;;;;;;;-3.08;75.67;101626.53;1793045;80;20974;-34
2020/12/11 00:54:42;;;;;;;14.53;7.22;;;;;;;-3.13;75.77;101628.36;1792603;80;20986;-35
2020/12/11 00:57:10;;;;;;;20.15;7.53;;;;;;;-3.17;75.89;101620.55;1793084;80;21189;-34
2020/12/11 00:59:38;;;;;;;14.73;7.40;;;;;;;-3.19;75.97;101628.88;1792898;80;20994;-34
2020/12/11 01:02:06;;;;;;;14.80;7.58;;;;;;;-3.18;75.97;101621.34;1748034;81;21046;-34
2020/12/11 01:04:34;;;;;;;14.47;7.70;;;;;;;-3.14;75.86;101621.55;1773897;81;20980;-33
2020/12/11 01:07:01;;;;;;;23.05;7.40;;;;;;;-3.15;75.85;101620.66;1775791;80;20960;-35
2020/12/11 01:09:29;;;;;;;15.75;6.45;;;;;;;-3.17;75.89;101601.55;1775827;80;21190;-34
2020/12/11 01:11:57;;;;;;;20.88;8.35;;;;;;;-3.15;75.82;101612.20;1775852;80;21078;-33
2020/12/11 01:14:26;;;;;;;20.55;7.20;;;;;;;-3.16;75.80;101608.78;1775902;80;20927;-34
2020/12/11 01:16:53;;;;;;;14.40;7.33;;;;;;;-3.17;75.80;101599.43;1775839;80;20932;-35
2020/12/11 01:19:23;;;;;;;19.23;7.00;;;;;;;-3.19;75.86;101606.93;1775794;80;20968;-35
2020/12/11 01:21:51;;;;;;;20.00;7.87;;;;;;;-3.21;75.79;101597.11;1775904;80;21195;-36
2020/12/11 01:24:18;;;;;;;17.55;7.45;;;;;;;-3.24;75.90;101609.60;1775733;80;21023;-35
2020/12/11 01:26:46;;;;;;;17.80;7.95;;;;;;;-3.28;76.01;101608.95;1775878;80;20979;-34
2020/12/11 01:29:14;;;;;;;21.02;8.20;;;;;;;-3.28;76.08;101611.48;1775814;80;21128;-34
2020/12/11 01:31:42;;;;;;;17.62;7.62;;;;;;;-3.27;76.04;101604.78;1775833;80;20979;-35
2020/12/11 01:34:10;;;;;;;21.40;8.55;;;;;;;-3.32;76.10;101598.17;1775872;80;21368;-35
2020/12/11 01:36:39;;;;;;;24.30;7.47;;;;;;;-3.34;76.13;101615.80;1775838;80;20995;-35
2020/12/11 01:39:08;;;;;;;23.62;8.28;;;;;;;-3.40;76.28;101596.88;1775852;80;20925;-35
2020/12/11 01:41:35;;;;;;;19.12;8.38;;;;;;;-3.39;76.29;101608.34;1775838;80;20967;-35
2020/12/11 01:44:10;;;;;;;20.43;8.40;;;;;;;-3.40;76.28;101604.47;1775782;80;21120;-33
2020/12/11 01:46:40;;;;;;;18.73;8.40;;;;;;;-3.46;76.42;101606.26;1775835;80;21358;-35
2020/12/11 01:49:09;;;;;;;31.57;9.30;;;;;;;-3.44;76.44;101597.47;1775961;80;20888;-35
2020/12/11 01:51:38;;;;;;;25.23;8.53;;;;;;;-3.48;76.53;101604.03;1775825;80;20995;-33
2020/12/11 01:54:06;;;;;;;17.85;8.05;;;;;;;-3.51;76.59;101598.80;1775860;80;20928;-34
2020/12/11 01:56:43;;;;;;;24.18;9.03;;;;;;;-3.55;76.74;101594.31;1775838;80;20959;-34
2020/12/11 01:59:24;;;;;;;22.02;9.25;;;;;;;-3.52;76.86;101592.84;1851162;77;22468;-34
2020/12/11 02:01:52;;;;;;;26.52;10.13;;;;;;;-3.58;76.90;101585.28;1823360;78;20915;-34
2020/12/11 02:04:20;;;;;;;29.50;10.58;;;;;;;-3.57;76.85;101577.78;1791958;78;21381;-35
2020/12/11 02:06:48;;;;;;;33.25;9.18;;;;;;;-3.56;76.77;101595.98;1823263;78;20887;-33
2020/12/11 02:09:16;;;;;;;21.85;8.93;;;;;;;-3.62;76.90;101592.70;1823308;78;21026;-34
2020/12/11 02:11:44;;;;;;;24.82;9.13;;;;;;;-3.65;77.03;101581.14;1791814;78;20963;-34
2020/12/11 02:14:11;;;;;;;27.35;10.00;;;;;;;-3.63;76.99;101591.37;1823308;78;21014;-35
2020/12/11 02:16:41;;;;;;;38.40;10.90;;;;;;;-3.69;77.16;101596.94;1823293;78;21201;-34
2020/12/11 02:19:11;;;;;;;19.35;9.40;;;;;;;-3.70;77.17;101595.57;1823208;78;21069;-33
2020/12/11 02:21:39;;;;;;;21.55;9.15;;;;;;;-3.73;77.29;101585.27;1823275;78;20959;-34
2020/12/11 02:24:07;;;;;;;21.05;9.60;;;;;;;-3.81;77.39;101594.56;1823261;78;20868;-33
2020/12/11 02:26:35;;;;;;;22.17;9.38;;;;;;;-3.80;77.44;101594.16;1823309;78;20967;-34
2020/12/11 02:29:02;;;;;;;19.45;8.98;;;;;;;-3.77;77.36;101568.64;1823255;78;21200;-33
2020/12/11 02:31:30;;;;;;;23.90;7.70;;;;;;;-3.84;77.38;101575.78;1823337;78;20990;-36
2020/12/11 02:33:59;;;;;;;23.55;9.35;;;;;;;-3.81;77.32;101571.78;1823268;78;20990;-34
2020/12/11 02:36:26;;;;;;;21.17;9.65;;;;;;;-3.83;77.35;101570.83;1823256;78;21029;-33
2020/12/11 02:38:54;;;;;;;23.77;9.18;;;;;;;-3.83;77.28;101569.94;1823238;78;20962;-35
2020/12/11 02:41:22;;;;;;;20.08;9.60;;;;;;;-3.82;77.29;101570.05;1791704;78;22604;-33
2020/12/11 02:43:50;;;;;;;17.82;8.93;;;;;;;-3.88;77.44;101568.43;1823296;78;21038;-35
2020/12/11 02:46:18;;;;;;;25.72;9.93;;;;;;;-3.88;77.46;101576.02;1791516;78;20915;-34
2020/12/11 02:48:47;;;;;;;21.33;8.40;;;;;;;-3.93;77.53;101570.68;1823251;78;20915;-35
2020/12/11 02:51:15;;;;;;;16.70;8.30;;;;;;;-3.96;77.68;101562.02;1823238;78;20988;-33
2020/12/11 02:53:42;;;;;;;25.02;9.50;;;;;;;-3.97;77.78;101565.34;1823227;78;21466;-34
2020/12/11 02:56:11;;;;;;;18.12;8.55;;;;;;;-4.01;77.94;101559.63;1823312;78;21017;-36
2020/12/11 02:58:38;;;;;;;25.70;10.05;;;;;;;-4.04;78.04;101568.78;1814586;78;20967;-34
2020/12/11 03:01:07;;;;;;;23.60;9.20;;;;;;;-4.08;78.10;101560.91;1809196;79;20884;-33
2020/12/11 03:03:35;;;;;;;23.67;9.08;;;;;;;-4.07;78.11;101563.55;1809149;79;20968;-34
2020/12/11 03:06:03;;;;;;;25.45;9.25;;;;;;;-4.10;78.13;101553.25;1809279;79;21200;-36
2020/12/11 03:08:30;;;;;;;23.92;9.30;;;;;;;-4.12;78.13;101567.47;1809085;79;20963;-33
2020/12/11 03:10:59;;;;;;;25.12;8.88;;;;;;;-4.11;78.02;101563.27;1808652;79;21137;-34
2020/12/11 03:13:27;;;;;;;25.57;8.70;;;;;;;-4.16;78.12;101566.81;1808524;79;20959;-34
2020/12/11 03:15:55;;;;;;;25.27;9.20;;;;;;;-4.20;78.23;101544.23;1808664;79;21509;-34
2020/12/11 03:18:23;;;;;;;26.20;9.83;;;;;;;-4.24;78.35;101558.76;1808511;79;21381;-34
2020/12/11 03:20:51;;;;;;;25.08;9.80;;;;;;;-4.26;78.45;101560.32;1808563;79;21038;-34
2020/12/11 03:23:19;;;;;;;23.30;9.23;;;;;;;-4.33;78.59;101547.70;1808521;79;20911;-33
2020/12/11 03:25:47;;;;;;;25.57;9.83;;;;;;;-4.29;78.58;101556.73;1808590;79;21007;-33
2020/12/11 03:28:15;;;;;;;29.55;9.80;;;;;;;-4.31;78.51;101550.70;1808768;79;20967;-33
2020/12/11 03:30:43;;;;;;;22.98;8.73;;;;;;;-4.35;78.62;101546.73;1808643;79;21199;-33
2020/12/11 03:33:11;;;;;;;27.90;9.38;;;;;;;-4.41;78.72;101541.31;1808506;79;21042;-33
2020/12/11 03:35:39;;;;;;;30.32;9.43;;;;;;;-4.44;78.75;101536.45;1808633;79;21379;-35
2020/12/11 03:38:07;;;;;;;23.35;9.33;;;;;;;-4.44;78.68;101548.69;1808550;79;20948;-33
2020/12/11 03:40:34;;;;;;;22.37;8.98;;;;;;;-4.49;78.79;101547.17;1808616;79;20990;-33
2020/12/11 03:43:02;;;;;;;23.70;10.00;;;;;;;-4.48;78.73;101544.23;1808615;79;21348;-33
2020/12/11 03:45:30;;;;;;;25.25;9.78;;;;;;;-4.52;78.72;101555.84;1808533;79;20979;-34
2020/12/11 03:47:58;;;;;;;21.82;9.88;;;;;;;-4.53;78.79;101546.88;1808586;79;20979;-34
2020/12/11 03:50:26;;;;;;;19.98;9.38;;;;;;;-4.55;78.71;101535.80;1808542;79;21042;-34
2020/12/11 03:52:54;;;;;;;28.10;10.35;;;;;;;-4.61;78.80;101556.52;1808547;79;20959;-34
2020/12/11 03:55:22;;;;;;;22.37;9.88;;;;;;;-4.65;78.86;101533.11;1808464;79;21201;-33
2020/12/11 03:57:49;;;;;;;25.95;10.20;;;;;;;-4.71;78.98;101556.75;1808571;79;21192;-33
2020/12/11 04:00:18;;;;;;;27.62;10.75;;;;;;;-4.74;79.06;101554.03;1808574;79;20915;-33
2020/12/11 04:02:45;;;;;;;27.37;10.60;;;;;;;-4.83;79.18;101541.30;1808546;79;20927;-33
2020/12/11 04:05:14;;;;;;;28.23;11.15;;;;;;;-4.85;79.29;101541.59;1808640;79;20967;-34
2020/12/11 04:07:41;;;;;;;28.85;10.98;;;;;;;-4.90;79.38;101531.60;1808583;79;21348;-33
2020/12/11 04:10:09;;;;;;;27.87;10.28;;;;;;;-4.92;79.37;101544.53;1808497;79;21985;-34
2020/12/11 04:12:37;;;;;;;29.95;10.85;;;;;;;-4.97;79.40;101538.32;1808567;79;21066;-33
2020/12/11 04:15:05;;;;;;;33.23;10.43;;;;;;;-5.03;79.51;101552.70;1808479;79;20995;-34
2020/12/11 04:17:33;;;;;;;25.52;10.10;;;;;;;-5.03;79.50;101544.27;1808610;79;21055;-34
2020/12/11 04:20:01;;;;;;;24.23;10.40;;;;;;;-5.08;79.48;101546.48;1808566;79;21302;-33
2020/12/11 04:22:29;;;;;;;24.23;9.93;;;;;;;-5.13;79.51;101551.24;1808397;79;20975;-33
2020/12/11 04:24:57;;;;;;;26.10;10.38;;;;;;;-5.18;79.62;101560.19;1808546;79;21022;-33
2020/12/11 04:27:24;;;;;;;23.95;10.68;;;;;;;-5.24;79.71;101559.80;1808463;79;21006;-33
2020/12/11 04:29:53;;;;;;;29.63;10.85;;;;;;;-5.30;79.83;101556.48;1808593;79;21011;-33
2020/12/11 04:32:21;;;;;;;30.37;10.95;;;;;;;-5.35;79.96;101557.85;1808533;79;21234;-34
2020/12/11 04:34:49;;;;;;;22.70;10.45;;;;;;;-5.40;80.08;101546.59;1808477;79;20920;-33
2020/12/11 04:37:17;;;;;;;26.70;11.20;;;;;;;-5.46;80.21;101543.66;1808523;79;20881;-36
2020/12/11 04:39:45;;;;;;;39.25;12.43;;;;;;;-5.52;80.30;101565.20;1808526;79;20955;-34
2020/12/11 04:42:13;;;;;;;29.55;11.08;;;;;;;-5.56;80.42;101562.00;1808602;79;20971;-33
2020/12/11 04:44:42;;;;;;;26.00;11.57;;;;;;;-5.60;80.56;101569.26;1786053;79;22581;-32
2020/12/11 04:47:10;;;;;;;32.00;12.10;;;;;;;-5.65;80.72;101565.20;1808528;79;20959;-33
2020/12/11 04:49:39;;;;;;;21.15;10.60;;;;;;;-5.68;80.80;101558.28;1808412;79;20967;-35
2020/12/11 04:52:07;;;;;;;29.30;10.95;;;;;;;-5.70;80.84;101542.55;1786187;79;20991;-35
2020/12/11 04:54:38;;;;;;;34.27;12.05;;;;;;;-5.70;80.72;101527.41;1808536;79;20963;-34
2020/12/11 04:57:09;;;;;;;29.02;11.83;;;;;;;-5.78;80.80;101554.28;1808577;79;21195;-32
2020/12/11 04:59:37;;;;;;;30.08;11.10;;;;;;;-5.83;80.88;101555.63;1814581;79;21027;-34
2020/12/11 05:02:12;;;;;;;27.90;10.53;;;;;;;-5.88;81.11;101553.20;1817432;79;21037;-34
2020/12/11 05:04:41;;;;;;;32.78;10.98;;;;;;;-5.93;81.23;101555.41;1817525;79;20975;-33
2020/12/11 05:09:16;;;;;;;35.70;12.63;;;;;;;-5.89;81.38;101558.13;1777137;79;22043;-32
2020/12/11 05:11:46;;;;;;;25.23;10.35;;;;;;;-5.96;81.39;101554.32;1749856;82;20896;-33
2020/12/11 05:14:23;;;;;;;27.22;10.53;;;;;;;-6.02;81.46;101554.84;1749905;82;21373;-33
2020/12/11 05:16:59;;;;;;;26.25;11.45;;;;;;;-6.04;81.53;101556.77;1749738;82;21038;-36
2020/12/11 05:19:28;;;;;;;31.25;11.12;;;;;;;-6.06;81.54;101556.27;1749786;82;21030;-33
2020/12/11 05:22:11;;;;;;;35.08;12.98;;;;;;;-6.09;81.53;101548.51;1749863;82;21557;-33
2020/12/11 05:24:45;;;;;;;44.20;14.75;;;;;;;-6.13;81.67;101553.23;1749712;82;20983;-36
2020/12/11 05:27:38;;;;;;;47.20;16.07;;;;;;;-6.14;81.69;101564.98;1750085;82;22135;-34
2020/12/11 05:30:18;;;;;;;46.05;15.45;;;;;;;-6.19;81.73;101553.69;1749652;82;21553;-35
2020/12/11 05:32:52;;;;;;;46.85;14.70;;;;;;;-6.19;81.74;101548.64;1749790;82;21026;-35
2020/12/11 05:35:31;;;;;;;68.73;17.77;;;;;;;-6.22;81.77;101556.00;1749976;82;21000;-35
2020/12/11 05:38:04;;;;;;;59.67;16.27;;;;;;;-6.26;81.80;101559.98;1749693;82;20983;-36
2020/12/11 05:40:40;;;;;;;45.78;15.45;;;;;;;-6.31;81.89;101556.28;1749828;82;22257;-35
2020/12/11 05:43:17;;;;;;;35.05;12.82;;;;;;;-6.31;81.97;101554.13;1749667;82;20983;-34
2020/12/11 05:45:58;;;;;;;43.48;11.45;;;;;;;-6.37;82.00;101555.47;1749781;82;21038;-35
2020/12/11 05:48:38;;;;;;;42.75;13.93;;;;;;;-6.37;82.02;101564.30;1749608;82;21066;-34
2020/12/11 05:51:16;;;;;;;39.80;13.18;;;;;;;-6.36;81.97;101569.83;1749725;82;21169;-33
2020/12/11 05:53:44;;;;;;;29.27;11.80;;;;;;;-6.38;81.96;101566.70;1749776;82;22145;-34
2020/12/11 05:56:12;;;;;;;25.40;11.83;;;;;;;-6.41;82.05;101571.53;1749698;82;21058;-36
2020/12/11 05:58:41;;;;;;;25.97;11.10;;;;;;;-6.40;82.10;101574.54;1643243;82;76210;-37
2020/12/11 06:01:17;;;;;;;32.63;11.88;;;;;;;-6.39;82.05;101569.62;1572540;91;21062;-35
2020/12/11 06:03:47;;;;;;;29.37;11.30;;;;;;;-6.39;81.99;101575.92;1573010;91;21004;-36
2020/12/11 06:06:16;;;;;;;36.60;11.22;;;;;;;-6.38;81.94;101583.08;1572837;91;22756;-34
2020/12/11 06:08:45;;;;;;;19.75;9.85;;;;;;;-6.36;81.75;101572.34;1564886;91;21593;-35
2020/12/11 06:11:22;;;;;;;22.55;9.70;;;;;;;-6.41;81.91;101566.48;1562980;91;20988;-34
2020/12/11 06:13:59;;;;;;;27.25;11.80;;;;;;;-6.33;81.68;101567.88;1562865;91;21043;-34
2020/12/11 06:16:26;;;;;;;30.72;11.00;;;;;;;-6.35;81.74;101566.53;1525267;91;21071;-34
2020/12/11 06:19:00;;;;;;;31.23;12.28;;;;;;;-6.31;81.58;101572.67;1552272;91;21249;-33
2020/12/11 06:21:27;;;;;;;31.10;12.13;;;;;;;-6.31;81.63;101578.08;1570857;91;21055;-34
2020/12/11 06:23:55;;;;;;;31.80;10.88;;;;;;;-6.28;81.39;101569.46;1551879;91;21016;-34
2020/12/11 06:26:23;;;;;;;31.23;12.82;;;;;;;-6.28;81.42;101562.79;1552005;91;21064;-35
2020/12/11 06:28:51;;;;;;;30.70;12.85;;;;;;;-6.19;81.07;101565.44;1567216;91;21012;-32
2020/12/11 06:31:22;;;;;;;32.17;11.70;;;;;;;-6.19;81.15;101566.70;1567178;91;21182;-36
2020/12/11 06:33:55;;;;;;;32.65;12.63;;;;;;;-6.13;81.01;101567.09;1567101;91;21051;-34
2020/12/11 06:36:22;;;;;;;36.03;12.40;;;;;;;-6.11;80.80;101568.08;1567145;91;21106;-34
2020/12/11 06:38:58;;;;;;;34.63;12.70;;;;;;;-6.08;80.63;101558.19;1567150;91;21047;-33
2020/12/11 06:41:32;;;;;;;30.50;11.73;;;;;;;-6.03;80.17;101555.62;1567164;91;21094;-32
2020/12/11 06:44:14;;;;;;;25.85;12.15;;;;;;;-6.05;80.20;101564.73;1567251;91;22386;-33
2020/12/11 06:46:41;;;;;;;34.85;12.98;;;;;;;-6.04;80.32;101552.61;1567187;90;21039;-32
2020/12/11 06:49:17;;;;;;;34.90;13.75;;;;;;;-5.97;80.13;101559.77;1567181;91;20996;-33
2020/12/11 06:51:51;;;;;;;37.70;11.80;;;;;;;-5.87;79.97;101561.63;1567199;91;21072;-34
2020/12/11 06:54:25;;;;;;;31.55;12.73;;;;;;;-5.89;80.10;101556.50;1567169;91;21055;-32
2020/12/11 06:56:56;;;;;;;33.50;11.57;;;;;;;-5.80;79.90;101547.41;1567288;91;21250;-33
2020/12/11 06:59:37;;;;;;;40.43;12.98;;;;;;;-5.72;79.55;101524.80;1566822;91;21003;-34
2020/12/11 07:02:15;;;;;;;30.10;11.03;;;;;;;-5.69;79.04;101554.39;1567188;91;21095;-33
2020/12/11 07:04:44;;;;;;;35.58;11.80;;;;;;;-5.71;79.15;101549.63;1567124;91;21096;-34
2020/12/11 07:07:13;;;;;;;27.17;11.40;;;;;;;-5.68;79.08;101546.08;1567177;91;21013;-33
2020/12/11 07:09:50;;;;;;;21.62;11.18;;;;;;;-5.61;78.88;101557.05;1567211;91;22186;-34
2020/12/11 07:12:17;;;;;;;26.02;11.38;;;;;;;-5.62;78.92;101553.62;1567210;91;21587;-33
2020/12/11 07:14:48;;;;;;;34.30;11.33;;;;;;;-5.56;78.57;101545.59;1567184;91;21185;-33
2020/12/11 07:17:29;;;;;;;27.87;10.72;;;;;;;-5.55;78.54;101549.86;1567207;91;21649;-35
2020/12/11 07:19:57;;;;;;;24.30;11.22;;;;;;;-5.51;78.40;101511.83;1567221;91;21047;-33
2020/12/11 07:22:25;;;;;;;26.80;11.08;;;;;;;-5.58;78.44;101544.99;1567238;91;22421;-33
2020/12/11 07:24:53;;;;;;;29.67;10.03;;;;;;;-5.57;78.79;101543.84;1567112;91;21162;-34
2020/12/11 07:27:21;;;;;;;24.75;10.55;;;;;;;-5.46;78.65;101533.55;1567094;91;21000;-33
2020/12/11 07:29:52;;;;;;;26.07;10.25;;;;;;;-5.43;78.47;101528.33;1567095;91;21068;-33
2020/12/11 07:32:22;;;;;;;26.00;11.00;;;;;;;-5.40;78.30;101533.97;1562396;91;21072;-33
2020/12/11 07:34:50;;;;;;;24.95;11.10;;;;;;;-5.40;78.58;101526.40;1562551;91;21608;-34
2020/12/11 07:37:19;;;;;;;30.57;10.78;;;;;;;-5.34;78.62;101521.33;1562390;91;21578;-34
2020/12/11 07:39:46;;;;;;;30.05;11.25;;;;;;;-5.27;78.24;101530.17;1570743;91;21119;-34
2020/12/11 07:42:17;;;;;;;30.05;10.80;;;;;;;-5.23;78.35;101523.27;1570826;91;20984;-33
2020/12/11 07:44:45;;;;;;;30.10;10.98;;;;;;;-5.16;78.29;101516.96;1533711;91;21110;-34
2020/12/11 07:47:18;;;;;;;23.67;10.48;;;;;;;-5.06;77.64;101507.91;1570711;90;21243;-34
2020/12/11 07:49:46;;;;;;;25.50;10.05;;;;;;;-5.07;77.75;101509.95;1570481;91;21050;-33
2020/12/11 07:52:25;;;;;;;26.33;10.72;;;;;;;-5.02;77.78;101497.61;1570777;91;21000;-35
2020/12/11 07:54:53;;;;;;;24.87;10.38;;;;;;;-4.98;77.57;101495.76;1570850;91;20984;-34
2020/12/11 07:57:22;;;;;;;24.63;10.68;;;;;;;-4.88;77.20;101500.13;1567088;91;21063;-36
2020/12/11 07:59:59;;;;;;;23.62;10.70;;;;;;;-4.86;77.17;101499.42;1567142;91;21401;-36
2020/12/11 08:02:28;;;;;;;23.52;10.90;;;;;;;-4.84;77.08;101483.11;1567120;91;21197;-34
2020/12/11 08:04:56;;;;;;;20.57;9.53;;;;;;;-4.87;77.34;101490.10;1567204;90;21102;-36
2020/12/11 08:07:29;;;;;;;27.30;10.50;;;;;;;-4.84;77.43;101485.64;1550231;91;21265;-34
2020/12/11 08:10:15;;;;;;;27.90;10.93;;;;;;;-4.77;77.59;101500.38;1565892;91;21114;-35
2020/12/11 08:12:43;;;;;;;22.27;10.10;;;;;;;-4.66;77.36;101490.55;1565845;91;21409;-34
2020/12/11 08:15:12;;;;;;;22.25;9.48;;;;;;;-4.58;76.87;101488.45;1565761;91;21285;-35
2020/12/11 08:17:41;;;;;;;28.45;10.48;;;;;;;-4.63;77.04;101492.00;1561170;92;21561;-34
2020/12/11 08:20:09;;;;;;;25.30;10.80;;;;;;;-4.55;76.94;101490.30;1561178;92;21072;-35
2020/12/11 08:22:40;;;;;;;23.32;10.82;;;;;;;-4.49;76.93;101485.61;1561179;92;21067;-35
2020/12/11 08:25:24;;;;;;;23.32;10.60;;;;;;;-4.45;76.58;101485.00;1561128;90;21430;-34
2020/12/11 08:27:52;;;;;;;25.48;10.18;;;;;;;-4.44;76.66;101480.84;1561260;92;21503;-36
2020/12/11 08:30:22;;;;;;;28.87;10.58;;;;;;;-4.44;76.58;101477.91;1561161;92;21056;-34
2020/12/11 08:32:50;;;;;;;29.82;10.90;;;;;;;-4.44;76.43;101475.38;1561101;92;21076;-37
2020/12/11 08:35:20;;;;;;;26.50;11.45;;;;;;;-4.45;76.76;101468.58;1561197;92;21068;-37
2020/12/11 08:37:57;;;;;;;26.80;11.25;;;;;;;-4.35;76.64;101460.77;1559583;91;22445;-37
2020/12/11 08:40:26;;;;;;;27.15;11.25;;;;;;;-4.33;76.73;101458.31;1561222;92;20992;-35
2020/12/11 08:50:50;;;;;;;31.02;10.40;;;;;;;-4.08;76.35;101453.41;1823363;78;20871;-35
2020/12/11 08:53:17;;;;;;;18.65;10.00;;;;;;;-4.01;75.84;101436.92;1823154;78;21367;-36
2020/12/11 08:55:45;;;;;;;23.25;11.12;;;;;;;-3.96;75.85;101422.88;1823242;78;21021;-37
2020/12/11 08:58:13;;;;;;;27.42;11.50;;;;;;;-3.91;75.60;101421.50;1823243;78;20959;-35
2020/12/11 09:00:41;;;;;;;17.57;9.53;;;;;;;-3.88;75.56;101420.78;1823364;78;21021;-35
2020/12/11 09:03:09;;;;;;;24.50;10.72;;;;;;;-3.86;75.58;101413.77;1823445;78;20954;-33
2020/12/11 09:05:38;;;;;;;20.90;11.45;;;;;;;-3.83;75.54;101407.61;1823311;78;21235;-32
2020/12/11 09:08:06;;;;;;;32.42;12.98;;;;;;;-3.75;75.50;101396.65;1823239;78;21014;-34
2020/12/11 09:10:34;;;;;;;28.47;12.78;;;;;;;-3.65;74.92;101385.38;1823260;78;20938;-34
2020/12/11 09:13:01;;;;;;;23.25;11.30;;;;;;;-3.65;74.84;101403.09;1823366;78;21489;-34
2020/12/11 09:15:30;;;;;;;29.40;12.15;;;;;;;-3.60;75.04;101396.61;1823322;78;20931;-33
2020/12/11 09:17:57;;;;;;;20.20;10.90;;;;;;;-3.48;74.76;101377.01;1823262;78;21248;-35
2020/12/11 09:20:25;;;;;;;24.63;10.80;;;;;;;-3.46;74.08;101391.03;1823198;78;21005;-34
2020/12/11 09:22:55;;;;;;;22.10;10.70;;;;;;;-3.47;74.29;101387.61;1823240;78;21050;-33
2020/12/11 09:25:23;;;;;;;27.30;11.75;;;;;;;-3.48;74.44;101382.08;1823351;78;21535;-33
2020/12/11 09:27:51;;;;;;;20.57;10.72;;;;;;;-3.40;74.36;101372.77;1823207;78;20903;-34
2020/12/11 09:30:33;;;;;;;25.45;10.53;;;;;;;-3.36;74.34;101373.41;1823284;78;21190;-36
2020/12/11 09:33:01;;;;;;;32.42;9.90;;;;;;;-3.29;74.44;101357.73;1822222;78;20990;-33
2020/12/11 09:35:26;;;;;;;24.02;10.95;;;;;;;-3.21;74.03;101370.40;1822826;78;21041;-35
2020/12/11 09:37:54;;;;;;;26.33;10.30;;;;;;;-3.14;73.94;101371.59;1823322;78;20923;-34
2020/12/11 09:40:34;;;;;;;29.75;10.53;;;;;;;-3.08;73.94;101365.58;1823308;78;20899;-34
2020/12/11 09:43:37;;;;;;;24.87;11.08;;;;;;;-2.98;73.72;101369.88;1821939;78;21362;-34
2020/12/11 09:45:52;;;;;;;25.27;10.65;;;;;;;-2.90;73.68;101364.79;1818736;78;21010;-36
2020/12/11 09:51:07;;;;;;;28.38;11.48;;;;;;;-2.63;72.73;101352.66;1809282;79;21003;-34
2020/12/11 09:53:53;;;;;;;26.90;11.63;;;;;;;-2.52;72.70;101345.96;1808130;79;21025;-36
2020/12/11 09:56:04;;;;;;;20.45;10.38;;;;;;;-2.37;72.39;101340.77;1805467;79;21216;-34
2020/12/11 09:58:35;;;;;;;26.75;10.88;;;;;;;-2.17;72.00;101345.53;1808862;79;20979;-35
2020/12/11 10:01:06;;;;;;;31.27;10.23;;;;;;;-2.01;71.10;101345.89;1808662;79;20983;-35
2020/12/11 10:03:37;;;;;;;29.50;10.93;;;;;;;-1.92;70.85;101337.80;1808564;79;20904;-36
2020/12/11 10:06:08;;;;;;;25.77;10.90;;;;;;;-1.75;70.03;101347.09;1808698;79;20912;-36
2020/12/11 10:08:36;;;;;;;23.62;9.90;;;;;;;-1.69;70.09;101345.63;1808546;79;21404;-36
2020/12/11 10:11:04;;;;;;;41.85;10.25;;;;;;;-1.57;69.47;101338.58;1808692;79;21342;-35
2020/12/11 10:13:34;;;;;;;25.77;9.88;;;;;;;-1.49;69.35;101338.52;1808610;79;20971;-35
2020/12/11 10:16:02;;;;;;;25.40;11.10;;;;;;;-1.34;69.31;101334.94;1808658;79;20928;-37
2020/12/11 10:18:32;;;;;;;18.45;10.18;;;;;;;-1.10;68.49;101318.61;1808611;79;20979;-36
2020/12/11 10:20:59;;;;;;;20.75;10.05;;;;;;;-0.98;67.55;101324.63;1808638;79;21979;-36
2020/12/11 10:23:29;;;;;;;22.62;10.18;;;;;;;-0.96;67.40;101322.16;1808517;79;20959;-36
2020/12/11 10:25:58;;;;;;;26.17;9.85;;;;;;;-0.96;67.27;101317.08;1808617;79;21398;-35
2020/12/11 10:28:26;;;;;;;28.95;11.30;;;;;;;-0.94;67.51;101319.28;1808448;79;21010;-32
2020/12/11 10:30:53;;;;;;;24.47;10.32;;;;;;;-0.82;66.85;101306.22;1808657;79;21030;-32
2020/12/11 10:33:21;;;;;;;24.70;9.95;;;;;;;-0.77;66.84;101289.48;1808582;79;21199;-33
2020/12/11 10:35:49;;;;;;;23.95;9.75;;;;;;;-0.74;66.57;101300.66;1808571;79;21007;-34
2020/12/11 10:38:19;;;;;;;19.17;9.55;;;;;;;-0.75;66.38;101292.95;1808518;79;20963;-33
2020/12/11 10:40:47;;;;;;;24.77;11.33;;;;;;;-0.85;66.64;101298.47;1808555;79;20979;-34
2020/12/11 10:43:16;;;;;;;27.70;11.10;;;;;;;-0.71;66.67;101296.08;1808615;79;21026;-33
2020/12/11 10:45:44;;;;;;;26.57;12.10;;;;;;;-0.65;66.64;101280.21;1808580;79;21378;-33
2020/12/11 10:48:12;;;;;;;21.80;10.20;;;;;;;-0.54;66.20;101292.09;1808361;79;20940;-33
2020/12/11 10:50:40;;;;;;;22.80;10.78;;;;;;;-0.51;66.11;101287.98;1808556;79;21046;-33
2020/12/11 10:53:08;;;;;;;22.05;9.50;;;;;;;-0.41;66.08;101291.77;1808585;79;20963;-34
2020/12/11 10:55:36;;;;;;;20.10;10.13;;;;;;;-0.24;65.61;101276.30;1808632;79;20979;-34
2020/12/11 10:58:04;;;;;;;20.32;9.33;;;;;;;-0.11;65.02;101291.27;1808679;79;22424;-34
2020/12/11 11:00:32;;;;;;;18.62;8.50;;;;;;;-0.08;64.73;101293.92;1808436;79;20943;-33
2020/12/11 11:03:00;;;;;;;27.02;9.58;;;;;;;0.03;64.39;101296.00;1808584;79;20999;-34
2020/12/11 11:05:28;;;;;;;24.23;9.48;;;;;;;0.07;64.28;101296.19;1808565;79;21011;-35
2020/12/11 11:07:55;;;;;;;22.45;10.75;;;;;;;0.16;64.03;101295.67;1808519;79;20994;-33
2020/12/11 11:10:41;;;;;;;21.33;9.18;;;;;;;0.24;63.61;101299.36;1808464;79;21210;-33
2020/12/11 11:13:31;;;;;;;20.30;8.95;;;;;;;0.22;63.55;101294.63;1807384;79;21025;-33
2020/12/11 11:20:51;;;;;;;23.22;9.95;;;;;;;0.24;63.41;101295.55;1808634;79;21486;-34
2020/12/11 11:23:17;;;;;;;23.05;9.28;;;;;;;0.31;62.95;101270.29;1807025;79;22393;-33
2020/12/11 11:28:07;;;;;;;21.65;9.80;;;;;;;0.16;63.37;101282.05;1808439;79;20987;-34
2020/12/11 11:30:34;;;;;;;18.65;8.73;;;;;;;0.23;63.29;101272.16;1808487;79;20972;-34
2020/12/11 11:33:03;;;;;;;26.68;8.88;;;;;;;0.23;63.22;101249.63;1808598;79;20923;-34
2020/12/11 11:35:30;;;;;;;20.10;8.30;;;;;;;0.18;63.24;101268.97;1808479;79;21303;-33
2020/12/11 11:37:58;;;;;;;16.73;8.50;;;;;;;0.18;63.27;101271.52;1808404;79;21014;-34
2020/12/11 11:40:26;;;;;;;19.37;9.30;;;;;;;0.22;63.26;101271.70;1808532;79;21043;-36
2020/12/11 11:42:54;;;;;;;26.02;9.13;;;;;;;0.32;62.63;101269.48;1808510;79;20923;-33